createdAt,value
2022-09-28T00:00:50.615Z,11.49
2022-09-28T00:01:50.684Z,11.43
2022-09-28T00:02:50.720Z,11.46
2022-09-28T00:03:50.579Z,11.53
2022-09-28T00:04:50.570Z,11.50
2022-09-28T00:05:50.558Z,11.43
2022-09-28T00:06:50.543Z,11.52
2022-09-28T00:07:50.546Z,11.38
2022-09-28T00:08:50.522Z,11.39
2022-09-28T00:09:50.559Z,11.38
2022-09-28T00:10:50.499Z,11.39
2022-09-28T00:11:50.490Z,11.53
2022-09-28T00:12:50.503Z,11.38
2022-09-28T00:13:50.468Z,11.44
2022-09-28T00:14:50.458Z,11.52
2022-09-28T00:15:50.452Z,11.43
2022-09-28T00:16:50.494Z,11.53
2022-09-28T00:17:50.436Z,11.52
2022-09-28T00:18:50.412Z,11.46
2022-09-28T00:19:50.404Z,11.53
2022-09-28T00:20:50.394Z,11.43
2022-09-28T00:21:50.381Z,11.39
2022-09-28T00:22:50.386Z,11.43
2022-09-28T00:23:50.360Z,11.46
2022-09-28T00:24:50.346Z,11.39
2022-09-28T00:25:50.347Z,11.35
2022-09-28T00:26:50.326Z,11.43
2022-09-28T00:27:50.334Z,11.27
2022-09-28T00:28:50.323Z,11.27
2022-09-28T00:29:50.293Z,11.29
2022-09-28T00:30:50.280Z,11.21
2022-09-28T00:31:50.355Z,11.27
2022-09-28T00:32:50.269Z,11.17
2022-09-28T00:33:50.249Z,11.17
2022-09-28T00:34:50.239Z,11.19
2022-09-28T00:35:50.228Z,11.16
2022-09-28T00:36:50.218Z,11.14
2022-09-28T00:37:50.214Z,11.17
2022-09-28T00:38:50.192Z,11.17
2022-09-28T00:39:50.182Z,11.17
2022-09-28T00:40:50.318Z,11.19
2022-09-28T00:41:50.163Z,11.24
2022-09-28T00:42:50.158Z,11.24
2022-09-28T00:43:50.141Z,11.24
2022-09-28T00:44:50.148Z,11.24
2022-09-28T00:45:50.173Z,11.25
2022-09-28T00:46:50.108Z,11.24
2022-09-28T00:47:50.108Z,11.20
2022-09-28T00:48:50.082Z,11.19
2022-09-28T00:49:50.073Z,11.24
2022-09-28T00:50:50.062Z,11.21
2022-09-28T00:51:50.052Z,11.29
2022-09-28T00:52:50.052Z,11.31
2022-09-28T00:53:50.029Z,11.28
2022-09-28T00:54:50.020Z,11.24
2022-09-28T00:55:50.007Z,11.27
2022-09-28T00:56:49.996Z,11.34
2022-09-28T00:57:49.998Z,11.34
2022-09-28T00:58:49.980Z,11.32
2022-09-28T00:59:49.961Z,11.44
2022-09-28T01:00:50.028Z,11.52
2022-09-28T01:01:49.990Z,11.44
2022-09-28T01:02:49.942Z,11.43
2022-09-28T01:03:49.919Z,11.46
2022-09-28T01:04:49.911Z,11.41
2022-09-28T01:05:49.901Z,11.49
2022-09-28T01:06:49.887Z,11.38
2022-09-28T01:07:49.885Z,11.50
2022-09-28T01:08:49.866Z,11.43
2022-09-28T01:09:49.852Z,11.56
2022-09-28T01:10:49.843Z,11.43
2022-09-28T01:11:49.832Z,11.46
2022-09-28T01:12:49.831Z,11.52
2022-09-28T01:13:49.809Z,11.54
2022-09-28T01:14:49.800Z,11.53
2022-09-28T01:15:49.787Z,11.46
2022-09-28T01:16:49.913Z,11.49
2022-09-28T01:17:49.774Z,11.46
2022-09-28T01:18:49.758Z,11.52
2022-09-28T01:19:49.744Z,11.46
2022-09-28T01:20:49.801Z,11.44
2022-09-28T01:21:49.723Z,11.53
2022-09-28T01:22:49.727Z,11.41
2022-09-28T01:23:49.701Z,11.56
2022-09-28T01:24:49.691Z,11.49
2022-09-28T01:25:49.680Z,11.52
2022-09-28T01:26:49.669Z,11.54
2022-09-28T01:27:49.668Z,11.39
2022-09-28T01:28:49.647Z,11.35
2022-09-28T01:29:49.635Z,11.24
2022-09-28T01:30:49.628Z,11.24
2022-09-28T01:31:49.635Z,11.34
2022-09-28T01:32:49.633Z,11.27
2022-09-28T01:33:49.591Z,11.27
2022-09-28T01:34:49.584Z,11.34
2022-09-28T01:35:49.570Z,11.35
2022-09-28T01:36:49.570Z,11.35
2022-09-28T01:37:49.549Z,11.41
2022-09-28T01:38:49.538Z,11.35
2022-09-28T01:39:49.527Z,11.34
2022-09-28T01:40:49.567Z,11.34
2022-09-28T01:41:49.522Z,11.36
2022-09-28T01:42:49.495Z,11.52
2022-09-28T01:43:49.483Z,11.41
2022-09-28T01:44:49.473Z,11.36
2022-09-28T01:45:49.521Z,11.38
2022-09-28T01:46:49.460Z,11.38
2022-09-28T01:47:49.441Z,11.52
2022-09-28T01:48:49.448Z,11.46
2022-09-28T01:49:49.415Z,11.52
2022-09-28T01:50:49.409Z,11.44
2022-09-28T01:51:49.406Z,11.53
2022-09-28T01:52:49.386Z,11.57
2022-09-28T01:53:49.372Z,11.50
2022-09-28T01:54:49.363Z,11.52
2022-09-28T01:55:49.349Z,11.47
2022-09-28T01:56:49.350Z,11.54
2022-09-28T01:57:49.328Z,11.61
2022-09-28T01:58:49.321Z,11.57
2022-09-28T01:59:49.307Z,11.54
2022-09-28T02:00:49.314Z,11.53
2022-09-28T02:01:49.386Z,11.57
2022-09-28T02:02:49.279Z,11.54
2022-09-28T02:03:49.263Z,11.53
2022-09-28T02:04:49.273Z,11.50
2022-09-28T02:05:49.245Z,11.53
2022-09-28T02:06:49.246Z,11.57
2022-09-28T02:07:49.226Z,11.53
2022-09-28T02:08:49.211Z,11.54
2022-09-28T02:09:49.199Z,11.43
2022-09-28T02:10:49.193Z,11.52
2022-09-28T02:11:49.187Z,11.53
2022-09-28T02:12:49.168Z,11.50
2022-09-28T02:13:49.155Z,11.47
2022-09-28T02:14:49.150Z,11.39
2022-09-28T02:15:49.141Z,11.43
2022-09-28T02:16:49.122Z,11.49
2022-09-28T02:17:49.112Z,11.41
2022-09-28T02:18:49.114Z,11.47
2022-09-28T02:19:49.088Z,11.52
2022-09-28T02:20:49.107Z,11.46
2022-09-28T02:21:49.066Z,11.53
2022-09-28T02:22:49.057Z,11.57
2022-09-28T02:23:49.043Z,11.57
2022-09-28T02:24:49.034Z,11.50
2022-09-28T02:25:49.087Z,11.53
2022-09-28T02:26:49.014Z,11.54
2022-09-28T02:27:49.012Z,11.44
2022-09-28T02:28:48.990Z,11.44
2022-09-28T02:29:48.977Z,11.53
2022-09-28T02:30:48.980Z,11.47
2022-09-28T02:31:49.024Z,11.44
2022-09-28T02:32:48.978Z,11.54
2022-09-28T02:33:48.938Z,11.49
2022-09-28T02:34:48.924Z,11.50
2022-09-28T02:35:48.922Z,11.47
2022-09-28T02:36:48.921Z,11.43
2022-09-28T02:37:48.890Z,11.47
2022-09-28T02:38:48.885Z,11.43
2022-09-28T02:39:48.868Z,11.50
2022-09-28T02:40:48.928Z,11.38
2022-09-28T02:41:48.845Z,11.43
2022-09-28T02:42:48.835Z,11.47
2022-09-28T02:43:48.823Z,11.38
2022-09-28T02:44:48.814Z,11.46
2022-09-28T02:45:48.874Z,11.46
2022-09-28T02:46:48.821Z,11.49
2022-09-28T02:47:48.780Z,11.39
2022-09-28T02:49:00.133Z,11.46
2022-09-28T02:49:49.757Z,11.49
2022-09-28T02:50:48.770Z,11.38
2022-09-28T02:51:48.740Z,11.49
2022-09-28T02:52:48.744Z,11.44
2022-09-28T02:53:48.715Z,11.43
2022-09-28T02:54:48.711Z,11.50
2022-09-28T02:55:48.700Z,11.49
2022-09-28T02:56:48.682Z,11.41
2022-09-28T02:57:55.185Z,11.44
2022-09-28T02:58:48.660Z,11.38
2022-09-28T02:59:48.650Z,11.36
2022-09-28T03:00:48.683Z,11.47
2022-09-28T03:01:48.736Z,11.43
2022-09-28T03:02:48.623Z,11.49
2022-09-28T03:03:48.618Z,11.38
2022-09-28T03:04:48.599Z,11.34
2022-09-28T03:05:48.592Z,11.36
2022-09-28T03:06:48.580Z,11.27
2022-09-28T03:07:48.562Z,11.25
2022-09-28T03:08:48.576Z,11.27
2022-09-28T03:09:48.552Z,11.25
2022-09-28T03:10:48.529Z,11.27
2022-09-28T03:11:48.516Z,11.24
2022-09-28T03:12:48.568Z,11.27
2022-09-28T03:13:48.493Z,11.29
2022-09-28T03:14:48.496Z,11.27
2022-09-28T03:15:49.108Z,11.29
2022-09-28T03:16:48.464Z,11.31
2022-09-28T03:17:48.451Z,11.20
2022-09-28T03:18:48.441Z,11.28
2022-09-28T03:19:48.442Z,11.27
2022-09-28T03:20:48.418Z,11.32
2022-09-28T03:21:48.406Z,11.25
2022-09-28T03:23:00.477Z,11.28
2022-09-28T03:23:49.381Z,11.32
2022-09-28T03:24:48.412Z,11.32
2022-09-28T03:25:48.367Z,11.34
2022-09-28T03:26:48.353Z,11.32
2022-09-28T03:27:48.339Z,11.28
2022-09-28T03:28:48.330Z,11.32
2022-09-28T03:29:48.329Z,11.27
2022-09-28T03:30:48.358Z,11.32
2022-09-28T03:31:48.390Z,11.29
2022-09-28T03:32:48.285Z,11.28
2022-09-28T03:33:48.277Z,11.29
2022-09-28T03:34:48.277Z,11.29
2022-09-28T03:35:48.253Z,11.21
2022-09-28T03:36:48.273Z,11.27
2022-09-28T03:37:48.230Z,11.14
2022-09-28T03:38:48.221Z,11.14
2022-09-28T03:39:48.220Z,11.16
2022-09-28T03:40:48.318Z,11.06
2022-09-28T03:41:48.218Z,11.07
2022-09-28T03:42:48.184Z,10.99
2022-09-28T03:43:48.177Z,11.09
2022-09-28T03:44:48.156Z,11.01
2022-09-28T03:45:48.211Z,11.13
2022-09-28T03:46:48.134Z,11.06
2022-09-28T03:47:48.121Z,10.95
2022-09-28T03:48:48.126Z,10.98
2022-09-28T03:49:48.102Z,10.91
2022-09-28T03:50:48.090Z,10.94
2022-09-28T03:51:48.080Z,10.89
2022-09-28T03:52:48.080Z,10.94
2022-09-28T03:53:48.068Z,10.91
2022-09-28T03:54:49.394Z,10.96
2022-09-28T03:55:48.034Z,10.94
2022-09-28T03:56:48.049Z,10.95
2022-09-28T03:57:48.012Z,10.94
2022-09-28T03:58:48.012Z,10.98
2022-09-28T03:59:47.989Z,10.94
2022-09-28T04:00:48.033Z,10.94
2022-09-28T04:01:48.013Z,10.96
2022-09-28T04:02:47.961Z,10.95
2022-09-28T04:03:47.963Z,10.81
2022-09-28T04:04:47.935Z,10.80
2022-09-28T04:05:47.923Z,10.98
2022-09-28T04:06:47.914Z,10.78
2022-09-28T04:07:47.904Z,10.95
2022-09-28T04:08:47.904Z,10.95
2022-09-28T04:09:47.880Z,10.92
2022-09-28T04:10:47.873Z,10.88
2022-09-28T04:12:03.287Z,10.89
2022-09-28T04:12:48.865Z,10.80
2022-09-28T04:13:47.860Z,10.89
2022-09-28T04:14:47.826Z,10.76
2022-09-28T04:15:47.814Z,10.74
2022-09-28T04:16:47.835Z,10.71
2022-09-28T04:17:47.794Z,10.89
2022-09-28T04:18:47.794Z,10.76
2022-09-28T04:19:47.770Z,10.73
2022-09-28T04:20:47.761Z,10.80
2022-09-28T04:21:47.750Z,10.73
2022-09-28T04:22:47.740Z,10.84
2022-09-28T04:23:47.765Z,10.83
2022-09-28T04:24:47.717Z,10.81
2022-09-28T04:25:47.706Z,10.91
2022-09-28T04:26:47.695Z,10.88
2022-09-28T04:27:47.682Z,10.80
2022-09-28T04:28:47.843Z,10.88
2022-09-28T04:29:47.663Z,10.95
2022-09-28T04:30:47.652Z,10.91
2022-09-28T04:31:47.701Z,10.95
2022-09-28T04:32:47.633Z,10.94
2022-09-28T04:33:47.629Z,10.98
2022-09-28T04:34:47.606Z,10.98
2022-09-28T04:35:47.637Z,10.99
2022-09-28T04:36:47.588Z,11.01
2022-09-28T04:37:47.575Z,10.94
2022-09-28T04:38:54.744Z,10.95
2022-09-28T04:39:48.800Z,11.01
2022-09-28T04:40:47.583Z,10.92
2022-09-28T04:41:47.529Z,10.98
2022-09-28T04:42:47.520Z,11.01
2022-09-28T04:43:47.521Z,10.98
2022-09-28T04:44:47.527Z,10.92
2022-09-28T04:45:47.527Z,11.01
2022-09-28T04:46:47.477Z,10.96
2022-09-28T04:47:47.464Z,10.91
2022-09-28T04:48:47.465Z,10.91
2022-09-28T04:49:47.442Z,10.91
2022-09-28T04:50:47.434Z,10.99
2022-09-28T04:51:47.455Z,10.95
2022-09-28T04:52:47.411Z,10.99
2022-09-28T04:53:47.411Z,10.83
2022-09-28T04:54:47.389Z,10.84
2022-09-28T04:55:47.376Z,10.76
2022-09-28T04:56:47.369Z,10.88
2022-09-28T04:57:47.364Z,10.83
2022-09-28T04:58:51.877Z,10.81
2022-09-28T04:59:48.332Z,10.83
2022-09-28T05:00:47.375Z,10.81
2022-09-28T05:01:47.310Z,10.88
2022-09-28T05:02:47.302Z,10.80
2022-09-28T05:03:47.302Z,10.80
2022-09-28T05:04:47.288Z,10.92
2022-09-28T05:05:47.266Z,10.92
2022-09-28T05:06:47.258Z,10.89
2022-09-28T05:07:47.245Z,10.96
2022-09-28T05:08:47.267Z,10.95
2022-09-28T05:09:47.223Z,10.96
2022-09-28T05:10:47.212Z,10.99
2022-09-28T05:11:47.215Z,10.92
2022-09-28T05:12:47.192Z,10.99
2022-09-28T05:13:47.195Z,11.03
2022-09-28T05:14:47.167Z,11.07
2022-09-28T05:15:47.158Z,11.03
2022-09-28T05:16:47.255Z,11.09
2022-09-28T05:17:47.139Z,11.09
2022-09-28T05:18:47.135Z,11.03
2022-09-28T05:19:47.113Z,11.16
2022-09-28T05:20:47.111Z,11.01
2022-09-28T05:21:47.096Z,11.09
2022-09-28T05:22:47.079Z,11.16
2022-09-28T05:23:47.082Z,11.09
2022-09-28T05:24:47.056Z,11.14
2022-09-28T05:25:47.048Z,11.09
2022-09-28T05:26:47.034Z,11.09
2022-09-28T05:27:47.025Z,11.06
2022-09-28T05:28:47.024Z,11.03
2022-09-28T05:29:47.008Z,11.09
2022-09-28T05:30:46.990Z,10.99
2022-09-28T05:31:47.031Z,10.99
2022-09-28T05:32:46.989Z,11.07
2022-09-28T05:33:46.973Z,11.11
2022-09-28T05:34:46.952Z,11.10
2022-09-28T05:35:51.019Z,11.13
2022-09-28T05:36:47.924Z,11.09
2022-09-28T05:37:46.916Z,11.11
2022-09-28T05:38:46.915Z,11.11
2022-09-28T05:39:46.895Z,11.14
2022-09-28T05:40:46.941Z,11.16
2022-09-28T05:41:46.872Z,11.19
2022-09-28T05:42:46.857Z,11.10
2022-09-28T05:43:46.863Z,11.01
2022-09-28T05:44:46.837Z,10.99
2022-09-28T05:45:49.350Z,10.96
2022-09-28T05:46:46.816Z,10.95
2022-09-28T05:47:46.808Z,10.94
2022-09-28T05:48:46.822Z,10.96
2022-09-28T05:49:46.784Z,10.94
2022-09-28T05:50:46.771Z,11.02
2022-09-28T05:51:46.782Z,11.09
2022-09-28T05:52:46.770Z,11.09
2022-09-28T05:53:46.751Z,10.99
2022-09-28T05:54:46.731Z,11.10
2022-09-28T05:55:46.780Z,11.07
2022-09-28T05:56:46.712Z,11.01
2022-09-28T05:57:46.696Z,11.10
2022-09-28T05:58:46.696Z,11.17
2022-09-28T05:59:46.675Z,11.24
2022-09-28T06:00:46.712Z,11.39
2022-09-28T06:01:46.655Z,11.47
2022-09-28T06:02:46.709Z,11.54
2022-09-28T06:03:46.642Z,11.68
2022-09-28T06:04:46.635Z,11.75
2022-09-28T06:05:46.610Z,11.94
2022-09-28T06:06:46.602Z,12.12
2022-09-28T06:07:46.587Z,12.20
2022-09-28T06:08:46.584Z,12.39
2022-09-28T06:09:46.566Z,12.45
2022-09-28T06:10:46.555Z,12.63
2022-09-28T06:11:46.546Z,12.97
2022-09-28T06:12:46.533Z,13.25
2022-09-28T06:13:46.540Z,13.51
2022-09-28T06:14:46.509Z,13.70
2022-09-28T06:15:46.505Z,13.92
2022-09-28T06:16:46.563Z,14.10
2022-09-28T06:17:46.479Z,14.42
2022-09-28T06:18:46.481Z,14.61
2022-09-28T06:19:46.458Z,14.83
2022-09-28T06:20:46.461Z,15.08
2022-09-28T06:21:46.441Z,15.27
2022-09-28T06:22:46.422Z,15.48
2022-09-28T06:23:49.154Z,15.60
2022-09-28T06:24:46.412Z,15.82
2022-09-28T06:25:46.393Z,15.92
2022-09-28T06:26:46.387Z,16.04
2022-09-28T06:27:46.375Z,16.23
2022-09-28T06:28:46.372Z,16.35
2022-09-28T06:29:46.349Z,16.40
2022-09-28T06:30:46.379Z,16.53
2022-09-28T06:31:46.335Z,16.67
2022-09-28T06:32:46.316Z,16.81
2022-09-28T06:33:46.331Z,16.99
2022-09-28T06:34:46.305Z,17.10
2022-09-28T06:35:46.285Z,17.17
2022-09-28T06:36:46.289Z,17.41
2022-09-28T06:37:46.271Z,17.51
2022-09-28T06:38:46.260Z,17.63
2022-09-28T06:39:46.241Z,17.84
2022-09-28T06:40:46.322Z,18.13
2022-09-28T06:41:46.219Z,18.31
2022-09-28T06:42:46.208Z,18.54
2022-09-28T06:43:46.216Z,18.55
2022-09-28T06:44:46.209Z,18.76
2022-09-28T06:45:46.190Z,18.94
2022-09-28T06:46:46.171Z,18.91
2022-09-28T06:47:46.156Z,19.24
2022-09-28T06:48:46.159Z,19.32
2022-09-28T06:49:46.132Z,19.50
2022-09-28T06:50:46.122Z,19.61
2022-09-28T06:51:46.114Z,19.90
2022-09-28T06:52:46.115Z,20.16
2022-09-28T06:53:46.099Z,20.10
2022-09-28T06:54:46.078Z,20.16
2022-09-28T06:55:46.106Z,20.27
2022-09-28T06:56:46.055Z,20.39
2022-09-28T06:57:46.046Z,20.33
2022-09-28T06:58:46.043Z,20.30
2022-09-28T06:59:46.024Z,20.35
2022-09-28T07:00:46.076Z,20.47
2022-09-28T07:01:46.069Z,20.61
2022-09-28T07:02:46.018Z,20.72
2022-09-28T07:03:45.991Z,20.86
2022-09-28T07:04:45.969Z,21.05
2022-09-28T07:05:45.960Z,21.04
2022-09-28T07:06:45.947Z,21.27
2022-09-28T07:07:45.942Z,21.30
2022-09-28T07:08:53.172Z,21.41
2022-09-28T07:09:51.312Z,21.50
2022-09-28T07:10:46.909Z,21.50
2022-09-28T07:11:45.897Z,21.54
2022-09-28T07:12:45.883Z,21.69
2022-09-28T07:13:50.699Z,21.57
2022-09-28T07:14:48.075Z,21.78
2022-09-28T07:15:45.874Z,22.02
2022-09-28T07:17:09.666Z,21.97
2022-09-28T07:17:58.657Z,22.17
2022-09-28T07:18:46.829Z,22.38
2022-09-28T07:19:45.815Z,22.29
2022-09-28T07:20:53.413Z,22.37
2022-09-28T07:21:56.079Z,22.34
2022-09-28T07:22:46.782Z,22.32
2022-09-28T07:23:53.494Z,21.99
2022-09-28T07:24:46.775Z,22.02
2022-09-28T07:25:45.750Z,22.09
2022-09-28T07:26:45.739Z,22.20
2022-09-28T07:27:45.741Z,22.47
2022-09-28T07:28:45.714Z,22.49
2022-09-28T07:29:45.709Z,22.67
2022-09-28T07:30:45.780Z,22.71
2022-09-28T07:31:45.687Z,22.80
2022-09-28T07:32:45.685Z,22.72
2022-09-28T07:33:45.664Z,22.90
2022-09-28T07:34:45.655Z,22.97
2022-09-28T07:35:45.655Z,23.12
2022-09-28T07:36:45.634Z,23.09
2022-09-28T07:37:45.635Z,23.05
2022-09-28T07:38:45.614Z,23.14
2022-09-28T07:39:45.615Z,22.96
2022-09-28T07:40:48.380Z,22.87
2022-09-28T07:41:45.587Z,22.86
2022-09-28T07:42:45.581Z,22.78
2022-09-28T07:43:45.569Z,22.68
2022-09-28T07:44:45.572Z,22.04
2022-09-28T07:45:45.601Z,21.94
2022-09-28T07:46:45.530Z,21.85
2022-09-28T07:47:45.542Z,21.34
2022-09-28T07:48:45.512Z,21.02
2022-09-28T07:49:45.514Z,20.64
2022-09-28T07:50:45.489Z,20.59
2022-09-28T07:51:45.485Z,20.50
2022-09-28T07:52:45.485Z,20.28
2022-09-28T07:53:45.463Z,20.12
2022-09-28T07:54:45.445Z,20.09
2022-09-28T07:55:45.440Z,20.05
2022-09-28T07:56:45.443Z,20.02
2022-09-28T07:57:45.441Z,20.12
2022-09-28T07:58:45.403Z,20.05
2022-09-28T07:59:45.394Z,19.97
2022-09-28T08:00:45.386Z,19.83
2022-09-28T08:01:45.505Z,19.58
2022-09-28T08:02:45.436Z,19.54
2022-09-28T08:03:45.365Z,19.51
2022-09-28T08:04:45.353Z,19.38
2022-09-28T08:05:45.331Z,19.08
2022-09-28T08:06:45.317Z,18.87
2022-09-28T08:07:45.327Z,18.92
2022-09-28T08:08:45.296Z,18.84
2022-09-28T08:09:45.286Z,18.92
2022-09-28T08:10:47.292Z,18.68
2022-09-28T08:11:45.269Z,18.50
2022-09-28T08:12:45.282Z,18.46
2022-09-28T08:13:45.246Z,18.33
2022-09-28T08:14:45.232Z,18.27
2022-09-28T08:15:45.225Z,18.17
2022-09-28T08:16:46.726Z,18.06
2022-09-28T08:17:45.200Z,17.99
2022-09-28T08:18:45.198Z,17.89
2022-09-28T08:19:45.185Z,17.63
2022-09-28T08:20:48.101Z,17.41
2022-09-28T08:21:46.157Z,17.25
2022-09-28T08:22:45.142Z,17.15
2022-09-28T08:23:45.176Z,17.00
2022-09-28T08:24:45.120Z,17.03
2022-09-28T08:25:45.113Z,17.14
2022-09-28T08:26:45.098Z,16.95
2022-09-28T08:27:45.089Z,17.00
2022-09-28T08:28:45.292Z,16.90
2022-09-28T08:29:45.080Z,16.77
2022-09-28T08:30:45.101Z,16.60
2022-09-28T08:31:45.060Z,16.67
2022-09-28T08:32:45.043Z,16.59
2022-09-28T08:33:45.026Z,16.42
2022-09-28T08:34:45.024Z,16.31
2022-09-28T08:35:45.006Z,16.15
2022-09-28T08:36:45.016Z,16.09
2022-09-28T08:37:50.573Z,16.06
2022-09-28T08:38:45.978Z,15.96
2022-09-28T08:39:44.965Z,16.07
2022-09-28T08:40:45.080Z,15.88
2022-09-28T08:41:44.942Z,15.94
2022-09-28T08:42:44.944Z,15.88
2022-09-28T08:43:44.919Z,15.92
2022-09-28T08:44:44.948Z,15.93
2022-09-28T08:45:44.939Z,15.97
2022-09-28T08:46:44.889Z,15.97
2022-09-28T08:47:44.884Z,15.92
2022-09-28T08:48:51.771Z,15.94
2022-09-28T08:49:45.876Z,15.81
2022-09-28T08:50:44.844Z,15.82
2022-09-28T08:51:44.832Z,15.66
2022-09-28T08:52:44.837Z,15.81
2022-09-28T08:53:44.828Z,15.79
2022-09-28T08:54:44.801Z,15.76
2022-09-28T08:55:44.792Z,15.75
2022-09-28T08:56:44.780Z,15.66
2022-09-28T08:57:44.781Z,15.61
2022-09-28T08:58:44.755Z,15.49
2022-09-28T08:59:44.748Z,15.51
2022-09-28T09:00:44.756Z,15.49
2022-09-28T09:01:44.838Z,15.42
2022-09-28T09:02:44.739Z,15.36
2022-09-28T09:03:44.706Z,15.39
2022-09-28T09:04:44.692Z,15.43
2022-09-28T09:05:44.682Z,15.54
2022-09-28T09:06:44.731Z,15.61
2022-09-28T09:07:44.669Z,15.70
2022-09-28T09:08:44.649Z,15.75
2022-09-28T09:09:44.639Z,15.82
2022-09-28T09:10:44.629Z,15.97
2022-09-28T09:11:44.618Z,16.14
2022-09-28T09:12:44.643Z,16.34
2022-09-28T09:13:44.596Z,16.45
2022-09-28T09:14:44.587Z,16.60
2022-09-28T09:15:44.576Z,16.71
2022-09-28T09:16:44.660Z,17.00
2022-09-28T09:17:44.562Z,17.11
2022-09-28T09:18:44.538Z,17.30
2022-09-28T09:19:44.530Z,17.63
2022-09-28T09:20:44.518Z,17.89
2022-09-28T09:21:44.514Z,17.88
2022-09-28T09:22:44.507Z,17.95
2022-09-28T09:23:44.487Z,17.85
2022-09-28T09:24:44.476Z,17.97
2022-09-28T09:25:44.468Z,18.27
2022-09-28T09:26:44.461Z,18.74
2022-09-28T09:27:44.505Z,18.91
2022-09-28T09:28:44.436Z,19.06
2022-09-28T09:29:44.425Z,19.21
2022-09-28T09:30:44.444Z,19.51
2022-09-28T09:31:44.417Z,19.46
2022-09-28T09:32:44.409Z,19.72
2022-09-28T09:33:44.413Z,20.06
2022-09-28T09:34:44.371Z,19.90
2022-09-28T09:35:44.363Z,20.33
2022-09-28T09:36:44.362Z,20.62
2022-09-28T09:37:44.337Z,20.81
2022-09-28T09:38:44.328Z,20.91
2022-09-28T09:39:44.314Z,21.16
2022-09-28T09:40:44.335Z,21.39
2022-09-28T09:41:44.294Z,21.42
2022-09-28T09:42:44.300Z,20.58
2022-09-28T09:43:44.276Z,20.35
2022-09-28T09:44:44.263Z,20.95
2022-09-28T09:45:44.307Z,20.96
2022-09-28T09:46:44.242Z,20.74
2022-09-28T09:47:44.240Z,20.16
2022-09-28T09:48:44.239Z,20.43
2022-09-28T09:49:44.244Z,20.54
2022-09-28T09:50:44.201Z,20.64
2022-09-28T09:51:44.190Z,20.43
2022-09-28T09:52:44.487Z,20.23
2022-09-28T09:53:44.168Z,20.03
2022-09-28T09:54:44.158Z,19.91
2022-09-28T09:55:44.147Z,19.66
2022-09-28T09:56:44.172Z,19.35
2022-09-28T09:57:44.133Z,19.29
2022-09-28T09:58:44.119Z,19.14
2022-09-28T09:59:44.104Z,18.98
2022-09-28T10:00:44.093Z,18.84
2022-09-28T10:01:44.112Z,18.54
2022-09-28T10:02:44.127Z,18.50
2022-09-28T10:03:44.061Z,18.54
2022-09-28T10:04:44.072Z,18.84
2022-09-28T10:05:44.041Z,19.21
2022-09-28T10:06:44.037Z,19.31
2022-09-28T10:07:44.030Z,19.36
2022-09-28T10:08:44.009Z,19.36
2022-09-28T10:09:43.995Z,19.24
2022-09-28T10:10:43.986Z,19.11
2022-09-28T10:11:43.973Z,18.84
2022-09-28T10:12:43.975Z,18.59
2022-09-28T10:13:43.953Z,18.36
2022-09-28T10:14:43.944Z,18.10
2022-09-28T10:15:43.931Z,17.82
2022-09-28T10:16:43.978Z,17.69
2022-09-28T10:17:43.920Z,17.62
2022-09-28T10:18:43.899Z,17.66
2022-09-28T10:19:43.897Z,17.54
2022-09-28T10:20:43.899Z,17.47
2022-09-28T10:21:43.866Z,17.35
2022-09-28T10:22:43.865Z,17.30
2022-09-28T10:23:43.844Z,17.15
2022-09-28T10:24:43.842Z,17.14
2022-09-28T10:25:43.825Z,17.07
2022-09-28T10:26:43.824Z,17.13
2022-09-28T10:27:43.800Z,16.96
2022-09-28T10:28:43.799Z,16.92
2022-09-28T10:29:43.779Z,16.81
2022-09-28T10:30:43.810Z,16.98
2022-09-28T10:31:43.767Z,16.88
2022-09-28T10:32:43.747Z,16.73
2022-09-28T10:33:43.809Z,16.75
2022-09-28T10:34:47.495Z,16.81
2022-09-28T10:35:44.714Z,16.95
2022-09-28T10:36:43.745Z,16.81
2022-09-28T10:37:43.696Z,16.73
2022-09-28T10:38:43.686Z,16.60
2022-09-28T10:39:43.673Z,16.58
2022-09-28T10:40:43.814Z,16.44
2022-09-28T10:41:43.662Z,16.41
2022-09-28T10:42:43.642Z,16.38
2022-09-28T10:43:46.562Z,16.37
2022-09-28T10:44:44.620Z,16.27
2022-09-28T10:45:43.667Z,16.22
2022-09-28T10:46:43.609Z,16.12
2022-09-28T10:47:43.588Z,16.09
2022-09-28T10:48:43.577Z,16.04
2022-09-28T10:49:46.983Z,16.04
2022-09-28T10:50:43.557Z,16.09
2022-09-28T10:51:43.553Z,16.03
2022-09-28T10:52:43.552Z,15.88
2022-09-28T10:53:43.525Z,15.92
2022-09-28T10:54:43.514Z,15.86
2022-09-28T10:55:43.504Z,15.81
2022-09-28T10:56:43.504Z,15.75
2022-09-28T10:57:43.482Z,15.72
2022-09-28T10:58:43.469Z,15.67
2022-09-28T10:59:43.457Z,15.59
2022-09-28T11:00:43.447Z,15.56
2022-09-28T11:01:43.521Z,15.43
2022-09-28T11:02:43.444Z,15.28
2022-09-28T11:03:43.441Z,15.24
2022-09-28T11:04:43.411Z,15.23
2022-09-28T11:05:43.393Z,15.15
2022-09-28T11:06:43.392Z,15.12
2022-09-28T11:07:43.401Z,15.08
2022-09-28T11:08:44.582Z,15.12
2022-09-28T11:09:46.220Z,14.98
2022-09-28T11:10:43.356Z,14.90
2022-09-28T11:11:43.335Z,14.88
2022-09-28T11:12:43.315Z,14.71
2022-09-28T11:13:43.362Z,14.62
2022-09-28T11:14:43.296Z,14.67
2022-09-28T11:15:43.289Z,14.69
2022-09-28T11:16:43.343Z,14.60
2022-09-28T11:17:43.265Z,14.69
2022-09-28T11:18:43.252Z,14.68
2022-09-28T11:19:43.241Z,14.68
2022-09-28T11:20:45.406Z,14.67
2022-09-28T11:21:43.228Z,14.72
2022-09-28T11:22:43.209Z,14.78
2022-09-28T11:23:43.196Z,14.80
2022-09-28T11:24:43.206Z,14.74
2022-09-28T11:25:43.175Z,14.74
2022-09-28T11:26:43.180Z,14.78
2022-09-28T11:27:43.152Z,14.86
2022-09-28T11:28:43.144Z,14.74
2022-09-28T11:29:43.136Z,14.81
2022-09-28T11:30:43.231Z,14.90
2022-09-28T11:31:43.122Z,14.88
2022-09-28T11:32:43.101Z,14.98
2022-09-28T11:33:43.086Z,14.90
2022-09-28T11:34:58.667Z,14.98
2022-09-28T11:35:44.067Z,14.93
2022-09-28T11:36:43.069Z,14.98
2022-09-28T11:37:43.043Z,15.08
2022-09-28T11:38:43.034Z,15.11
2022-09-28T11:39:43.064Z,15.11
2022-09-28T11:40:43.101Z,15.05
2022-09-28T11:41:43.019Z,14.93
2022-09-28T11:42:42.993Z,14.90
2022-09-28T11:43:42.982Z,14.78
2022-09-28T11:44:42.969Z,14.74
2022-09-28T11:45:43.034Z,14.83
2022-09-28T11:46:42.958Z,14.80
2022-09-28T11:47:42.942Z,14.78
2022-09-28T11:48:42.928Z,14.86
2022-09-28T11:49:42.912Z,14.75
2022-09-28T11:50:42.912Z,14.93
2022-09-28T11:51:42.907Z,14.86
2022-09-28T11:52:42.900Z,14.95
2022-09-28T11:53:42.870Z,14.90
2022-09-28T11:54:42.859Z,14.88
2022-09-28T11:55:42.864Z,14.78
2022-09-28T11:56:42.867Z,14.83
2022-09-28T11:57:42.829Z,14.78
2022-09-28T11:58:42.936Z,14.75
2022-09-28T11:59:42.807Z,14.93
2022-09-28T12:00:42.808Z,14.86
2022-09-28T12:01:42.792Z,14.94
2022-09-28T12:02:42.965Z,14.90
2022-09-28T12:03:43.041Z,14.90
2022-09-28T12:04:42.762Z,14.90
2022-09-28T12:05:42.739Z,14.98
2022-09-28T12:06:42.741Z,14.91
2022-09-28T12:07:42.730Z,15.02
2022-09-28T12:08:42.707Z,15.02
2022-09-28T12:09:42.694Z,14.99
2022-09-28T12:10:45.507Z,14.91
2022-09-28T12:11:42.688Z,14.98
2022-09-28T12:12:42.687Z,14.98
2022-09-28T12:13:42.652Z,14.91
2022-09-28T12:14:42.645Z,15.01
2022-09-28T12:16:11.612Z,14.99
2022-09-28T12:17:04.881Z,15.05
2022-09-28T12:17:43.687Z,15.08
2022-09-28T12:18:42.603Z,15.12
2022-09-28T12:19:42.590Z,15.03
2022-09-28T12:20:42.580Z,15.08
2022-09-28T12:21:42.628Z,15.09
2022-09-28T12:22:42.566Z,15.11
2022-09-28T12:23:42.545Z,15.08
2022-09-28T12:24:42.539Z,15.12
2022-09-28T12:25:42.526Z,15.17
2022-09-28T12:26:42.569Z,15.15
2022-09-28T12:27:42.503Z,15.12
2022-09-28T12:28:42.508Z,15.12
2022-09-28T12:29:42.479Z,15.09
2022-09-28T12:30:42.602Z,15.13
2022-09-28T12:31:42.477Z,15.08
2022-09-28T12:32:42.452Z,15.02
2022-09-28T12:33:42.438Z,15.03
2022-09-28T12:34:42.428Z,15.05
2022-09-28T12:35:42.417Z,15.09
2022-09-28T12:36:42.424Z,15.20
2022-09-28T12:37:42.397Z,15.11
2022-09-28T12:38:42.390Z,15.12
2022-09-28T12:39:57.114Z,15.08
2022-09-28T12:40:43.405Z,15.09
2022-09-28T12:41:42.361Z,15.08
2022-09-28T12:42:42.339Z,15.12
2022-09-28T12:43:42.338Z,15.15
2022-09-28T12:44:42.375Z,15.20
2022-09-28T12:46:06.810Z,15.21
2022-09-28T12:46:43.357Z,15.12
2022-09-28T12:47:42.292Z,15.24
2022-09-28T12:48:42.284Z,15.15
2022-09-28T12:50:37.217Z,15.21
2022-09-28T12:50:51.209Z,15.28
2022-09-28T12:51:43.248Z,15.20
2022-09-28T12:52:42.263Z,15.21